Liberty Hill, South Carolina
Current Conditions -  °F | °C
As of 4:55 AM on Monday 22 Dec 2014 (Local Time) from KLKR Reporting Station
Moderate Rain Moderate Rain  
Wind Chill: 36°   Ceiling: 600
Heat Index: 41°   Visibility: 2mi
Dew Point: 41°   Wind: 7mph
Humidity: 100%   Direction: 40°NE
Pressure: 30.1"   Gusts: NA
Location:  34.48°N, 80.8°W
Report Text: KLKR 220955Z AUTO 04006KT 2SM RA OVC006 05/05 A3010 RMK AO2 P0002
Loading
Personal Weather Stations






























Interactive Weather Map New forecast layout! Learn more

10-Day Weather Forecast

Advertisements
Track Severe Weather on mobile